createdAt,value
2018-12-07T00:01:43.462Z,2.47
2018-12-07T00:04:10.942Z,2.70
2018-12-07T00:06:38.438Z,2.47
2018-12-07T00:09:06.299Z,2.20
2018-12-07T00:11:33.867Z,2.33
2018-12-07T00:14:02.159Z,2.20
2018-12-07T00:16:29.671Z,2.08
2018-12-07T00:18:57.111Z,2.35
2018-12-07T00:21:24.602Z,2.10
2018-12-07T00:23:52.148Z,1.70
2018-12-07T00:26:19.615Z,1.80
2018-12-07T00:28:47.130Z,1.60
2018-12-07T00:31:14.533Z,1.57
2018-12-07T00:33:42.014Z,1.77
2018-12-07T00:36:09.486Z,1.90
2018-12-07T00:38:36.913Z,1.40
2018-12-07T00:41:04.422Z,1.52
2018-12-07T00:43:32.215Z,1.52
2018-12-07T00:45:59.703Z,1.35
2018-12-07T00:48:27.274Z,1.65
2018-12-07T00:50:54.831Z,1.50
2018-12-07T00:53:22.399Z,1.10
2018-12-07T00:55:49.975Z,1.37
2018-12-07T00:58:17.443Z,1.00
2018-12-07T01:00:44.923Z,1.20
2018-12-07T01:03:12.362Z,1.37
2018-12-07T01:05:39.787Z,1.30
2018-12-07T01:08:07.275Z,1.72
2018-12-07T01:10:34.775Z,1.47
2018-12-07T01:13:02.290Z,1.30
2018-12-07T01:15:29.834Z,1.35
2018-12-07T01:17:57.322Z,1.55
2018-12-07T01:20:24.772Z,1.30
2018-12-07T01:22:52.266Z,1.50
2018-12-07T01:25:19.822Z,1.45
2018-12-07T01:27:47.292Z,1.85
2018-12-07T01:30:14.766Z,1.55
2018-12-07T01:32:42.254Z,1.60
2018-12-07T01:35:09.770Z,1.52
2018-12-07T01:37:37.275Z,1.40
2018-12-07T01:40:05.880Z,1.27
2018-12-07T01:42:33.382Z,1.47
2018-12-07T01:45:00.873Z,1.45
2018-12-07T01:47:28.394Z,1.45
2018-12-07T01:49:55.902Z,1.45
2018-12-07T01:52:23.310Z,1.10
2018-12-07T01:54:50.802Z,1.55
2018-12-07T01:57:18.305Z,1.05
2018-12-07T01:59:45.780Z,1.12
2018-12-07T02:02:13.303Z,1.22
2018-12-07T02:04:40.698Z,1.40
2018-12-07T02:07:30.090Z,1.27
2018-12-07T02:09:58.566Z,1.30
2018-12-07T02:12:26.193Z,1.30
2018-12-07T02:14:53.618Z,1.00
2018-12-07T02:17:21.307Z,1.20
2018-12-07T02:19:48.796Z,1.50
2018-12-07T02:22:16.309Z,1.20
2018-12-07T02:24:43.725Z,1.60
2018-12-07T02:27:11.261Z,1.32
2018-12-07T02:29:38.758Z,1.42
2018-12-07T02:32:06.273Z,1.47
2018-12-07T02:34:33.779Z,1.50
2018-12-07T02:37:01.270Z,1.60
2018-12-07T02:39:28.755Z,1.40
2018-12-07T02:41:56.238Z,2.45
2018-12-07T02:44:24.235Z,2.15
2018-12-07T02:46:51.945Z,1.72
2018-12-07T02:49:19.431Z,1.55
2018-12-07T02:51:46.902Z,1.40
2018-12-07T02:54:14.410Z,1.40
2018-12-07T02:56:41.890Z,1.62
2018-12-07T02:59:09.383Z,1.85
2018-12-07T03:01:36.854Z,1.22
2018-12-07T03:04:04.461Z,1.50
2018-12-07T03:06:31.962Z,1.17
2018-12-07T03:08:59.482Z,1.30
2018-12-07T03:11:26.986Z,1.12
2018-12-07T03:13:54.541Z,1.20
2018-12-07T03:16:22.035Z,1.27
2018-12-07T03:18:49.496Z,1.65
2018-12-07T03:21:16.981Z,1.10
2018-12-07T03:23:44.405Z,1.57
2018-12-07T03:26:11.895Z,1.05
2018-12-07T03:28:39.370Z,1.00
2018-12-07T03:31:06.827Z,1.40
2018-12-07T03:33:34.319Z,1.10
2018-12-07T03:36:01.862Z,1.42
2018-12-07T03:38:29.345Z,0.90
2018-12-07T03:40:56.762Z,0.90
2018-12-07T03:43:24.253Z,1.05
2018-12-07T03:45:51.759Z,1.20
2018-12-07T03:48:19.222Z,1.00
2018-12-07T03:50:46.656Z,0.95
2018-12-07T03:53:14.781Z,0.90
2018-12-07T03:55:42.196Z,0.85
2018-12-07T03:58:09.678Z,1.10
2018-12-07T04:00:37.170Z,1.35
2018-12-07T04:03:04.758Z,1.30
2018-12-07T04:05:34.319Z,1.52
2018-12-07T04:08:01.898Z,1.17
2018-12-07T04:10:29.394Z,1.20
2018-12-07T04:12:56.943Z,1.20
2018-12-07T04:15:24.366Z,1.20
2018-12-07T04:17:51.891Z,0.90
2018-12-07T04:20:19.338Z,1.00
2018-12-07T04:22:46.900Z,0.95
2018-12-07T04:25:14.346Z,1.22
2018-12-07T04:27:41.876Z,0.80
2018-12-07T04:30:23.620Z,0.80
2018-12-07T04:32:51.110Z,1.00
2018-12-07T04:35:18.596Z,1.40
2018-12-07T04:37:46.098Z,0.93
2018-12-07T04:40:13.809Z,0.80
2018-12-07T04:42:41.391Z,0.88
2018-12-07T04:45:08.965Z,0.93
2018-12-07T04:47:36.422Z,1.30
2018-12-07T04:50:04.412Z,1.85
2018-12-07T04:52:31.914Z,2.50
2018-12-07T04:54:59.502Z,1.80
2018-12-07T04:57:27.032Z,2.50
2018-12-07T04:59:54.502Z,2.42
2018-12-07T05:02:21.998Z,1.92
2018-12-07T05:04:49.906Z,1.47
2018-12-07T05:07:17.407Z,2.15
2018-12-07T05:09:44.874Z,2.72
2018-12-07T05:12:12.378Z,3.35
2018-12-07T05:14:39.941Z,2.60
2018-12-07T05:17:07.511Z,2.55
2018-12-07T05:19:34.992Z,2.72
2018-12-07T05:22:02.474Z,2.10
2018-12-07T05:24:29.974Z,1.87
2018-12-07T05:26:57.474Z,1.65
2018-12-07T05:29:24.951Z,1.30
2018-12-07T05:31:52.448Z,1.30
2018-12-07T05:34:19.999Z,0.98
2018-12-07T05:36:47.499Z,0.90
2018-12-07T05:39:15.044Z,0.90
2018-12-07T05:41:42.560Z,1.12
2018-12-07T05:44:10.103Z,1.37
2018-12-07T05:46:37.583Z,0.98
2018-12-07T05:49:05.132Z,1.10
2018-12-07T05:51:32.626Z,1.40
2018-12-07T05:54:00.739Z,1.87
2018-12-07T05:56:28.259Z,1.65
2018-12-07T05:58:55.653Z,1.32
2018-12-07T06:01:23.126Z,1.35
2018-12-07T06:03:50.667Z,1.12
2018-12-07T06:06:18.172Z,1.20
2018-12-07T06:08:45.665Z,1.10
2018-12-07T06:11:13.259Z,1.32
2018-12-07T06:13:40.754Z,1.00
2018-12-07T06:16:08.267Z,1.72
2018-12-07T06:18:35.802Z,1.00
2018-12-07T06:21:03.374Z,1.45
2018-12-07T06:23:30.943Z,1.15
2018-12-07T06:25:58.415Z,0.93
2018-12-07T06:28:25.919Z,1.00
2018-12-07T06:30:53.430Z,1.82
2018-12-07T06:33:20.927Z,1.00
2018-12-07T06:35:48.498Z,1.55
2018-12-07T06:38:15.974Z,1.52
2018-12-07T06:40:43.442Z,1.30
2018-12-07T06:43:10.938Z,1.60
2018-12-07T06:45:38.426Z,1.40
2018-12-07T06:48:05.913Z,1.50
2018-12-07T06:50:33.382Z,2.40
2018-12-07T06:53:00.869Z,1.20
2018-12-07T06:55:28.367Z,1.35
2018-12-07T06:57:55.941Z,1.47
2018-12-07T07:00:23.434Z,1.50
2018-12-07T07:02:50.910Z,1.40
2018-12-07T07:05:18.452Z,1.45
2018-12-07T07:07:45.951Z,1.25
2018-12-07T07:10:13.450Z,1.20
2018-12-07T07:12:40.870Z,1.55
2018-12-07T07:15:08.389Z,1.40
2018-12-07T07:17:35.986Z,1.30
2018-12-07T07:20:04.806Z,1.30
2018-12-07T07:22:32.253Z,1.90
2018-12-07T07:24:59.746Z,1.90
2018-12-07T07:27:27.222Z,1.50
2018-12-07T07:29:54.727Z,1.50
2018-12-07T07:32:22.210Z,1.60
2018-12-07T07:34:49.698Z,1.55
2018-12-07T07:37:17.103Z,1.90
2018-12-07T07:39:44.581Z,1.77
2018-12-07T07:42:12.053Z,1.55
2018-12-07T07:44:39.531Z,1.67
2018-12-07T07:47:06.927Z,1.72
2018-12-07T07:49:34.423Z,1.20
2018-12-07T07:52:01.926Z,1.80
2018-12-07T07:54:29.426Z,1.40
2018-12-07T07:56:56.963Z,1.72
2018-12-07T07:59:24.391Z,1.77
2018-12-07T08:01:51.886Z,1.60
2018-12-07T08:04:19.374Z,1.37
2018-12-07T08:06:46.864Z,1.70
2018-12-07T08:09:14.352Z,1.50
2018-12-07T08:11:41.835Z,1.30
2018-12-07T08:14:09.314Z,1.10
2018-12-07T08:16:36.827Z,1.52
2018-12-07T08:19:04.402Z,1.47
2018-12-07T08:21:31.916Z,1.22
2018-12-07T08:23:59.386Z,1.15
2018-12-07T08:26:26.906Z,1.87
2018-12-07T08:28:54.486Z,2.02
2018-12-07T08:31:21.986Z,1.15
2018-12-07T08:33:49.475Z,1.45
2018-12-07T08:36:16.970Z,1.92
2018-12-07T08:38:44.461Z,1.45
2018-12-07T08:41:11.974Z,1.40
2018-12-07T08:43:39.559Z,1.60
2018-12-07T08:46:07.091Z,1.55
2018-12-07T08:48:34.580Z,1.52
2018-12-07T08:51:02.131Z,1.17
2018-12-07T08:53:29.706Z,0.98
2018-12-07T08:55:57.202Z,1.35
2018-12-07T08:58:24.754Z,1.50
2018-12-07T09:00:52.178Z,1.80
2018-12-07T09:03:19.653Z,1.70
2018-12-07T09:05:47.167Z,1.32
2018-12-07T09:08:15.312Z,1.80
2018-12-07T09:10:43.254Z,1.92
2018-12-07T09:13:10.750Z,1.57
2018-12-07T09:15:38.287Z,2.20
2018-12-07T09:18:05.710Z,1.30
2018-12-07T09:20:33.202Z,1.30
2018-12-07T09:23:00.699Z,1.50
2018-12-07T09:25:28.199Z,1.80
2018-12-07T09:27:56.532Z,2.00
2018-12-07T09:30:24.125Z,2.10
2018-12-07T09:32:51.696Z,1.35
2018-12-07T09:35:19.183Z,1.10
2018-12-07T09:37:46.598Z,1.60
2018-12-07T09:40:14.026Z,1.62
2018-12-07T09:42:41.566Z,1.60
2018-12-07T09:45:09.020Z,1.22
2018-12-07T09:47:36.515Z,1.25
2018-12-07T09:50:05.629Z,1.60
2018-12-07T09:52:33.131Z,1.80
2018-12-07T09:55:00.561Z,1.35
2018-12-07T09:57:28.070Z,1.40
2018-12-07T09:59:55.550Z,1.75
2018-12-07T10:02:22.990Z,1.60
2018-12-07T10:04:50.552Z,1.40
2018-12-07T10:07:18.126Z,1.40
2018-12-07T10:09:45.589Z,1.77
2018-12-07T10:12:13.026Z,1.35
2018-12-07T10:14:40.421Z,1.92
2018-12-07T10:17:07.862Z,2.15
2018-12-07T10:19:35.345Z,2.08
2018-12-07T10:22:02.773Z,1.30
2018-12-07T10:24:30.475Z,1.30
2018-12-07T10:27:01.762Z,1.30
2018-12-07T10:29:29.372Z,1.52
2018-12-07T10:31:56.842Z,1.40
2018-12-07T10:34:24.262Z,1.20
2018-12-07T10:36:51.742Z,1.85
2018-12-07T10:39:19.250Z,1.95
2018-12-07T10:41:46.734Z,2.20
2018-12-07T10:44:14.279Z,1.60
2018-12-07T10:46:41.794Z,1.90
2018-12-07T10:49:09.284Z,1.30
2018-12-07T10:51:36.694Z,2.10
2018-12-07T10:54:04.259Z,2.30
2018-12-07T10:56:31.831Z,2.05
2018-12-07T10:58:59.316Z,1.90
2018-12-07T11:01:32.540Z,1.75
2018-12-07T11:04:05.782Z,1.82
2018-12-07T11:06:38.883Z,2.58
2018-12-07T11:12:23.314Z,1.82
2018-12-07T11:14:56.614Z,1.50
2018-12-07T11:17:29.770Z,1.22
2018-12-07T11:20:02.922Z,1.65
2018-12-07T11:22:35.958Z,1.85
2018-12-07T11:25:10.126Z,1.35
2018-12-07T11:27:43.289Z,2.25
2018-12-07T11:30:16.344Z,1.40
2018-12-07T11:32:49.550Z,1.72
2018-12-07T11:35:18.974Z,1.40
2018-12-07T11:37:46.477Z,1.67
2018-12-07T11:40:13.978Z,1.15
2018-12-07T11:42:41.398Z,1.42
2018-12-07T11:45:08.978Z,1.50
2018-12-07T11:47:36.553Z,1.60
2018-12-07T11:50:06.375Z,1.52
2018-12-07T11:52:33.851Z,1.30
2018-12-07T11:55:01.423Z,2.45
2018-12-07T11:57:28.914Z,1.60
2018-12-07T11:59:56.459Z,1.47
2018-12-07T12:02:26.514Z,1.15
2018-12-07T12:04:53.450Z,1.40
2018-12-07T12:07:20.858Z,1.05
2018-12-07T12:09:48.262Z,1.20
2018-12-07T12:12:15.866Z,1.32
2018-12-07T12:14:43.439Z,1.10
2018-12-07T12:17:11.011Z,1.75
2018-12-07T12:19:38.501Z,1.55
2018-12-07T12:22:05.994Z,1.40
2018-12-07T12:24:33.518Z,1.77
2018-12-07T12:27:01.058Z,1.27
2018-12-07T12:29:28.562Z,1.12
2018-12-07T12:31:56.048Z,1.27
2018-12-07T12:34:23.610Z,1.22
2018-12-07T12:36:51.030Z,0.93
2018-12-07T12:39:18.530Z,1.35
2018-12-07T12:41:46.873Z,1.10
2018-12-07T12:44:14.722Z,1.52
2018-12-07T12:46:42.239Z,1.10
2018-12-07T12:49:09.722Z,2.50
2018-12-07T12:51:37.220Z,0.93
2018-12-07T12:54:04.807Z,1.00
2018-12-07T12:56:32.382Z,1.70
2018-12-07T12:58:59.951Z,1.10
2018-12-07T13:01:27.524Z,1.10
2018-12-07T13:03:55.009Z,1.20
2018-12-07T13:06:22.492Z,1.07
2018-12-07T13:08:50.035Z,1.10
2018-12-07T13:11:17.446Z,1.17
2018-12-07T13:13:44.933Z,1.50
2018-12-07T13:16:12.448Z,1.10
2018-12-07T13:18:39.915Z,1.10
2018-12-07T13:21:07.491Z,1.17
2018-12-07T13:23:35.066Z,1.10
2018-12-07T13:26:02.475Z,1.45
2018-12-07T13:28:30.003Z,0.95
2018-12-07T13:30:57.410Z,1.35
2018-12-07T13:33:24.890Z,1.00
2018-12-07T13:35:52.410Z,1.10
2018-12-07T13:38:19.922Z,0.90
2018-12-07T13:40:47.632Z,1.10
2018-12-07T13:43:15.348Z,1.10
2018-12-07T13:45:42.948Z,1.50
2018-12-07T13:48:10.619Z,0.82
2018-12-07T13:50:41.434Z,0.95
2018-12-07T13:53:09.027Z,0.90
2018-12-07T13:55:37.097Z,0.90
2018-12-07T13:58:04.693Z,0.80
2018-12-07T14:00:32.308Z,0.80
2018-12-07T14:03:00.026Z,0.80
2018-12-07T14:05:32.273Z,0.70
2018-12-07T14:07:57.042Z,0.82
2018-12-07T14:10:24.655Z,0.90
2018-12-07T14:12:52.412Z,0.80
2018-12-07T14:15:19.902Z,0.70
2018-12-07T14:17:47.535Z,1.00
2018-12-07T14:20:15.026Z,0.90
2018-12-07T14:22:42.657Z,1.17
2018-12-07T14:25:10.218Z,1.10
2018-12-07T14:27:37.848Z,0.88
2018-12-07T14:30:06.919Z,0.80
2018-12-07T14:32:34.559Z,0.70
2018-12-07T14:35:02.191Z,0.80
2018-12-07T14:37:29.897Z,0.80
2018-12-07T14:39:57.448Z,0.70
2018-12-07T14:42:25.067Z,0.90
2018-12-07T14:44:52.831Z,1.00
2018-12-07T14:47:20.427Z,0.85
2018-12-07T14:49:48.173Z,0.80
2018-12-07T14:52:15.778Z,0.90
2018-12-07T14:54:43.428Z,1.00
2018-12-07T14:57:11.124Z,0.80
2018-12-07T14:59:38.752Z,1.10
2018-12-07T15:02:06.293Z,0.90
2018-12-07T15:04:33.831Z,0.70
2018-12-07T15:07:01.317Z,0.90
2018-12-07T15:09:28.912Z,0.75
2018-12-07T15:11:56.532Z,0.70
2018-12-07T15:14:24.300Z,0.70
2018-12-07T15:16:51.830Z,0.70
2018-12-07T15:19:19.654Z,0.80
2018-12-07T15:21:47.193Z,0.70
2018-12-07T15:24:14.758Z,0.80
2018-12-07T15:26:42.289Z,0.80
2018-12-07T15:29:10.162Z,0.80
2018-12-07T15:31:37.721Z,1.00
2018-12-07T15:34:05.232Z,0.80
2018-12-07T15:36:32.907Z,0.82
2018-12-07T15:39:00.470Z,1.00
2018-12-07T15:41:28.096Z,0.72
2018-12-07T15:43:55.784Z,0.70
2018-12-07T15:46:23.211Z,1.15
2018-12-07T15:48:51.273Z,0.80
2018-12-07T15:51:18.850Z,0.68
2018-12-07T15:53:46.389Z,0.70
2018-12-07T15:56:13.870Z,0.80
2018-12-07T15:58:41.350Z,0.80
2018-12-07T16:01:08.969Z,0.70
2018-12-07T16:03:36.618Z,1.27
2018-12-07T16:06:04.276Z,0.80
2018-12-07T16:08:31.866Z,0.70
2018-12-07T16:10:59.566Z,0.98
2018-12-07T16:13:27.452Z,0.80
2018-12-07T16:15:54.946Z,0.80
2018-12-07T16:18:22.497Z,0.90
2018-12-07T16:20:49.919Z,0.80
2018-12-07T16:23:17.433Z,0.80
2018-12-07T16:25:45.067Z,0.70
2018-12-07T16:28:12.806Z,0.80
2018-12-07T16:30:40.406Z,0.80
2018-12-07T16:33:07.965Z,0.90
2018-12-07T16:35:35.465Z,0.85
2018-12-07T16:38:02.995Z,0.70
2018-12-07T16:40:30.453Z,1.10
2018-12-07T16:42:57.983Z,0.78
2018-12-07T16:45:25.411Z,0.70
2018-12-07T16:47:53.137Z,0.70
2018-12-07T16:50:20.658Z,1.15
2018-12-07T16:52:48.207Z,1.12
2018-12-07T16:55:15.781Z,0.70
2018-12-07T16:57:43.284Z,0.70
2018-12-07T17:00:10.859Z,1.20
2018-12-07T17:02:38.292Z,1.02
2018-12-07T17:05:07.809Z,0.80
2018-12-07T17:07:35.513Z,1.02
2018-12-07T17:10:04.718Z,0.70
2018-12-07T17:12:32.227Z,0.95
2018-12-07T17:15:00.232Z,0.70
2018-12-07T17:17:27.758Z,0.80
2018-12-07T17:19:55.187Z,0.82
2018-12-07T17:22:22.806Z,0.90
2018-12-07T17:24:50.221Z,1.07
2018-12-07T17:27:18.029Z,0.80
2018-12-07T17:29:45.603Z,0.82
2018-12-07T17:32:13.328Z,0.95
2018-12-07T17:34:40.832Z,0.88
2018-12-07T17:37:08.410Z,0.80
2018-12-07T17:39:35.901Z,0.90
2018-12-07T17:42:03.584Z,0.85
2018-12-07T17:44:31.239Z,0.90
2018-12-07T17:46:58.659Z,1.00
2018-12-07T17:49:26.379Z,1.00
2018-12-07T17:51:54.051Z,0.80
2018-12-07T17:54:21.733Z,1.20
2018-12-07T17:56:49.444Z,0.70
2018-12-07T17:59:17.191Z,0.90
2018-12-07T18:01:44.730Z,0.90
2018-12-07T18:04:12.278Z,0.80
2018-12-07T18:06:39.931Z,0.70
2018-12-07T18:09:07.858Z,0.80
2018-12-07T18:11:35.494Z,0.90
2018-12-07T18:14:03.515Z,0.80
2018-12-07T18:16:30.982Z,0.88
2018-12-07T18:18:58.607Z,0.70
2018-12-07T18:21:26.188Z,0.70
2018-12-07T18:23:53.835Z,0.80
2018-12-07T18:26:21.290Z,0.80
2018-12-07T18:28:48.897Z,0.80
2018-12-07T18:31:16.643Z,0.70
2018-12-07T18:33:44.168Z,0.93
2018-12-07T18:36:11.789Z,0.70
2018-12-07T18:38:39.460Z,0.80
2018-12-07T18:41:06.915Z,0.95
2018-12-07T18:43:34.476Z,0.78
2018-12-07T18:46:01.979Z,0.75
2018-12-07T18:48:29.500Z,0.70
2018-12-07T18:50:57.164Z,0.85
2018-12-07T18:53:24.680Z,0.72
2018-12-07T18:55:52.255Z,0.70
2018-12-07T18:58:19.879Z,0.93
2018-12-07T19:00:47.414Z,0.90
2018-12-07T19:03:15.278Z,0.80
2018-12-07T19:05:42.919Z,0.80
2018-12-07T19:08:10.768Z,0.80
2018-12-07T19:10:38.573Z,0.80
2018-12-07T19:13:06.202Z,0.98
2018-12-07T19:15:33.703Z,1.00
2018-12-07T19:18:01.550Z,0.80
2018-12-07T19:20:29.212Z,0.78
2018-12-07T19:22:56.702Z,0.98
2018-12-07T19:25:24.394Z,0.90
2018-12-07T19:27:52.132Z,0.90
2018-12-07T19:30:19.696Z,0.70
2018-12-07T19:32:47.110Z,0.70
2018-12-07T19:35:14.656Z,0.70
2018-12-07T19:37:42.170Z,0.90
2018-12-07T19:40:09.770Z,0.70
2018-12-07T19:42:37.251Z,0.80
2018-12-07T19:45:07.054Z,0.85
2018-12-07T19:47:34.821Z,0.70
2018-12-07T19:50:03.661Z,0.70
2018-12-07T19:52:31.777Z,0.90
2018-12-07T19:54:59.442Z,0.80
2018-12-07T19:57:26.906Z,0.70
2018-12-07T19:59:54.609Z,0.90
2018-12-07T20:02:22.098Z,0.60
2018-12-07T20:04:49.677Z,1.02
2018-12-07T20:07:17.371Z,0.80
2018-12-07T20:09:45.091Z,0.88
2018-12-07T20:12:12.593Z,0.85
2018-12-07T20:14:40.094Z,0.90
2018-12-07T20:17:07.665Z,1.22
2018-12-07T20:19:35.193Z,0.80
2018-12-07T20:22:02.749Z,0.90
2018-12-07T20:24:30.432Z,1.25
2018-12-07T20:26:57.858Z,0.80
2018-12-07T20:29:25.416Z,1.75
2018-12-07T20:31:53.307Z,0.72
2018-12-07T20:34:20.874Z,1.17
2018-12-07T20:36:48.975Z,0.80
2018-12-07T20:39:16.445Z,0.80
2018-12-07T20:41:44.246Z,1.00
2018-12-07T20:44:11.936Z,0.90
2018-12-07T20:46:39.370Z,1.00
2018-12-07T20:49:06.853Z,1.00
2018-12-07T20:51:34.368Z,0.90
2018-12-07T20:54:02.071Z,1.10
2018-12-07T20:56:29.733Z,1.02
2018-12-07T20:58:57.345Z,0.90
2018-12-07T21:01:25.181Z,1.02
2018-12-07T21:04:00.240Z,0.90
2018-12-07T21:06:55.302Z,1.10
2018-12-07T21:09:25.318Z,1.12
2018-12-07T21:11:56.934Z,0.80
2018-12-07T21:14:24.982Z,0.80
2018-12-07T21:17:03.578Z,0.90
2018-12-07T21:19:32.055Z,1.27
2018-12-07T21:21:59.878Z,0.80
2018-12-07T21:24:27.690Z,0.80
2018-12-07T21:26:55.330Z,0.80
2018-12-07T21:29:22.869Z,0.78
2018-12-07T21:31:53.090Z,0.95
2018-12-07T21:37:35.766Z,0.98
2018-12-07T21:40:09.930Z,0.90
2018-12-07T21:42:37.455Z,0.98
2018-12-07T21:45:05.767Z,1.07
2018-12-07T21:47:41.031Z,1.00
2018-12-07T21:50:12.663Z,1.50
2018-12-07T21:52:40.171Z,1.00
2018-12-07T21:55:07.730Z,0.80
2018-12-07T21:57:35.495Z,1.20
2018-12-07T22:00:04.660Z,1.10
2018-12-07T22:02:32.270Z,1.20
2018-12-07T22:04:59.993Z,1.22
2018-12-07T22:07:27.740Z,1.00
2018-12-07T22:09:55.482Z,1.07
2018-12-07T22:12:23.203Z,0.75
2018-12-07T22:14:50.696Z,1.22
2018-12-07T22:17:18.380Z,1.15
2018-12-07T22:19:45.979Z,1.05
2018-12-07T22:22:13.398Z,1.00
2018-12-07T22:24:40.869Z,1.00
2018-12-07T22:27:08.290Z,1.20
2018-12-07T22:29:35.994Z,1.40
2018-12-07T22:32:03.839Z,1.15
2018-12-07T22:34:31.398Z,1.10
2018-12-07T22:36:59.051Z,1.20
2018-12-07T22:39:26.598Z,1.15
2018-12-07T22:41:54.538Z,0.70
2018-12-07T22:44:22.138Z,0.90
2018-12-07T22:46:49.717Z,1.25
2018-12-07T22:49:17.243Z,1.15
2018-12-07T22:51:44.729Z,1.05
2018-12-07T22:54:12.342Z,1.12
2018-12-07T22:56:39.962Z,0.98
2018-12-07T22:59:07.494Z,1.02
2018-12-07T23:01:34.993Z,1.50
2018-12-07T23:04:02.491Z,1.00
2018-12-07T23:06:29.974Z,1.45
2018-12-07T23:08:57.475Z,1.00
2018-12-07T23:11:24.958Z,1.05
2018-12-07T23:13:52.519Z,1.22
2018-12-07T23:16:20.026Z,1.30
2018-12-07T23:18:47.524Z,1.40
2018-12-07T23:21:14.989Z,1.95
2018-12-07T23:23:42.486Z,1.70
2018-12-07T23:26:09.881Z,1.98
2018-12-07T23:28:37.358Z,0.90
2018-12-07T23:31:04.770Z,1.27
2018-12-07T23:33:32.387Z,1.47
2018-12-07T23:35:59.826Z,1.60
2018-12-07T23:38:27.318Z,1.00
2018-12-07T23:40:54.787Z,1.20
2018-12-07T23:43:22.371Z,1.37
2018-12-07T23:45:50.033Z,1.45
2018-12-07T23:48:17.505Z,1.57
2018-12-07T23:50:44.979Z,1.12
2018-12-07T23:53:12.477Z,1.55
2018-12-07T23:55:39.923Z,1.50
2018-12-07T23:58:07.498Z,1.50
